Avatar von osorno
  • osorno

mehr als 1000 Beiträge seit 01.07.2008

Woher kommen die 42% ?

Es ist 0:40 Uhr

Die Wetterstationen in Deutschland von Sylt bis Zugspitze liefern Wind Werte von so 2-4 Knoten (1 Kt = 1.852 Km/h), selbst auf dem Brocken sind es nur 13Kt und auf der Zugspitze 17 Kt, einige Stationen haben "Variable" also Windstille bzw wechselnde Richtungen.

Oder anders ausgedrückt, momentan herrscht grösstenteils Flaute in Deutschland.

Damit sind definitiv keine 42% realisierbar und die Solaranlagen liefern momentan 0%

Also woher kommen die 42% EE Strom jetzt um 0:52?

Oder weiss Herr Alt etwas, das wir nicht wissen... ?

EE Strom ist ja ganz nett, aber ohne Speicher funktioniert er momentan leider nicht so toll.
Und solange er jetzt in diesem Augenblick nicht auch 42% liefert, brauchen wir nicht über die Abschaltung von 42% konventionellen Kraftwerken zu diskutieren !

Ja es ist Nacht und der Strombedarf ist momentan geringer, aber das gleiche gibt es auch wenn zB. im Dezember tagsüber Flaute und trübes Wetter herrscht.

Aktueller Wind von Hamburg bis München:

EDDH Hamburg/Fuhlsbüttel METAR EDDH 152220Z 14004KT CAVOK 14/11 Q1015 NOSIG=
10147 Hamburg/Fuhlsbüttel 152230Z AUTO 14004G05KT 14KM ////// 14/10 Q1015=

Heisst: Hamburg automatische Station am 15. Okt. 22:30 UTC Wind aus 140 Grad (~südost) 4 Knoten in Böen 5 Kt

ETNL Rostock/Laage METAR ETNL 152220Z 12003KT 9999 12/07 Q1016 BLU+=
10172 Rostock/Laage 152200Z VRB02KT 20KM 12/07 Q1015=
10139 Bremervörde 152230Z AUTO 24002G02KT 6000 BR FEW100 12/11 Q1015=
10156 Lübeck 152230Z AUTO 16004G06KT 21KM ////// 15/09 Q1015=
10129 Bremerhaven 152230Z AUTO 20004G06KT 10KM SCT100 OVC270 OVC300 16/12 Q1015=
10146 Quickborn 152230Z AUTO 13002G02KT 5000 BR VV/// VV/// VV/// 10/10 Q1015=
10200 Emden 152230Z AUTO 29001G02KT 14KM OVC130 14/13 Q1014=
10161 Boltenhagen 152230Z AUTO 21008G09KT 19KM ////// 13/08 Q1015=
ETNT Wittmundhafen METAR ETNT 152220Z 21003KT 9999 BKN130 15/12 Q1015 BLU=
10126 Wittmundhafen 152200Z 00000KT 20KM BKN130AC 15/12 Q1015=
10170 Rostock/Warnemünde 152230Z AUTO 18007G09KT //// ////// 15/08 Q1015=
ETMN Nordholz METAR ETMN 152220Z 23005KT 9999 FEW090 SCT280 17/11 Q1015 BLU+=
10136 Nordholz 152200Z 24004KT 20KM FEW090AC SCT280CI 17/11 Q1015=
10152 Pelzerhaken 152230Z AUTO 20003G04KT 7000 BR SCT350 11/10 Q1015=
10131 Cuxhaven 152230Z AUTO 24005G08KT 14KM BKN280 BKN310 17/13 Q1015=
10142 Itzehoe-Hungriger Wolf 152230Z AUTO 03001G02KT 8000 FEW099 12/11 Q1015=
10150 Dornick 152230Z AUTO 00000G01KT 8000 SCT350 10/09 Q1015=
10124 LT Alte Weser 152200Z AUTO 30006KT //// ////// 18/13 Q1014=
10113 Norderney 152230Z AUTO 15004G04KT 9000 OVC120 OVC210 OVC230 16/13 Q1014=
10130 Elpersbüttel 152230Z AUTO 27002G03KT 7000 BR FEW085 OVC300 OVC330 13/11 Q1014=
10046 Kiel/Holtenau 152230Z AUTO 22002G03KT 15KM FEW096 15/11 Q1015=
ETNH Hohn METAR ETNH 152220Z 16002KT 9000 FEW080 12/10 Q1014 BLU+=
10038 Hohn 152200Z VRB02KT 9000 FEW300CI 12/10 Q1014=
10055 Fehmarn/Westermarkelsdorf 152230Z AUTO 17006G08KT 20KM FEW100 15/10 Q1015=
10044 LT Kiel 152230Z AUTO 22011G13KT //// ////// 19/11 Q1014=
10015 Helgoland 152230Z AUTO 35003G05KT 3700 BR SCT170 OVC190 OVC250 15/14 Q1014=
10028 St.Peter Ording 152230Z AUTO 17002G02KT 2900 BR SCT210 OVC300 OVC330 12/11 Q1014=
ETNS Jagel METAR ETNS 152220Z AUTO 34001KT 9999 // ////// 12/10 Q1014 ///=
10037 Jagel 152200Z AUTO 18002KT 14KM ////// 13/10 Q1014=
10007 Deutsche Bucht 152200Z AUTO 09006KT 3100 ////// 15/15 Q1014=
10035 Schleswig 152230Z AUTO 24003G04KT 19KM BKN089 BKN300 14/12 Q1014=
10042 Brodersby-Schönhagen 152230Z AUTO 24004G05KT 19KM SCT050 BKN300 13/11 Q1014=
EKAV Avno METAR EKAV 152220Z AUTO 06001KT 9999NDV NCD ///// Q1015=
ETGG Meierwik METAR ETGG 152220Z AUTO 23003KT //// // ////// 13/12 Q1014 ///=
10033 Meierwik 152200Z AUTO 21004KT //// ////// 13/12 Q1014=
10022 Leck 152230Z AUTO 10002G03KT 3000 BR OVC050 13/12 Q1014=
EKSB Soenderborg METAR EKSB 152220Z AUTO 00000KT 3300NDV BR OVC046/// 13/13 Q1014=
10020 List/Sylt 152230Z AUTO 06004G04KT 10KM BKN036 OVC052 OVC200 13/12 Q1014=
EKRK Roskilde/Tune METAR EKRK 152220Z AUTO 17002KT 8000NDV NCD 11/09 Q1015=
EKSP Skrydstrup METAR EKSP 152220Z 00000KT 1200 R10/1800U R28/1800U BR BKN045 11/10 Q1014=
EKVD Kolding METAR EKVD 152220Z AUTO 09003KT //// ///////// 12/11 Q1014=
EKEB Esbjerg METAR EKEB 152220Z AUTO 03004KT 6000NDV BKN190/// 10/09 Q1014=
EKHR HORNS REV. A HELIDECK METAR EKHR 152220Z AUTO 01012KT 9999NDV // NCD 12/09 Q1015=
EKBI Billund METAR EKBI 152220Z AUTO 33003KT 9999NDV SCT190/// 10/09 Q1015=
EKAH Tirstrup METAR EKAH 152220Z AUTO 35001KT 9999NDV NCD 11/10 Q1015=
EKKA Karup METAR EKKA 152220Z AUTO 35002KT 9999NDV SCT021/// BKN079/// 11/10 Q1015=
EDHI Hamburg-Finkenwerder METAR EDHI 152220Z AUTO VRB02KT 9999 // NCD 13/11 Q1014 RMK ATIS M=
10162 Schwerin 152230Z AUTO 20003G05KT 15KM ////// 12/08 Q1015=
10210 Friesoythe-Altenoythe 152230Z AUTO 13002G03KT 23KM FEW072 OVC120 15/13 Q1015=
10168 Goldberg 152230Z AUTO 13003G04KT 16KM ////// 12/07 Q1015=
10249 Boizenburg 152230Z AUTO 14002G04KT 21KM ////// 13/09 Q1015=
EDDW Bremen METAR EDDW 152220Z VRB02KT CAVOK 11/10 Q1015=
10224 Bremen 152230Z AUTO 25002G03KT //// ////// 12/11 Q1015=
10268 Waren 152230Z AUTO 20004G05KT 35KM ////// 13/08 Q1016=
10264 Marnitz 152230Z AUTO 16003G05KT 21KM ////// 13/06 Q1016=
10235 Soltau 152230Z AUTO 30002G03KT 19KM ////// 10/09 Q1015=
ETHS Fassberg METAR ETHS 152220Z 11001KT 9999 08/06 Q1015 BLU+=
10246 Fassberg 152200Z 12002KT 20KM 09/07 Q1015=
10238 Bergen 152200Z 36002KT 10KM 10/08 Q1015=
10321 Diepholz 152230Z AUTO 17001G02KT 5000 BKN140 BKN270 11/10 Q1015=
10253 Lüchow 152230Z AUTO 32002G02KT 12KM ////// 08/06 Q1015=
10261 Seehausen 152230Z AUTO 13004G04KT 22KM ////// 09/06 Q1015=
10267 Kyritz 152230Z AUTO 13004G06KT 22KM BKN150 BKN300 11/06 Q1016=
10343 Celle 152200Z 04002KT 25KM FEW130AC 12/09 Q1015=
ETHC Celle METAR ETHC 152220Z 04002KT 9999 FEW130 11/09 Q1015 BLU+=
10312 Belm 152230Z AUTO 00000G01KT 15KM SCT290 13/11 Q1015=
10270 Neuruppin 152230Z AUTO 11001G02KT 10KM ////// 10/07 Q1016=
10334 Wunstorf 152200Z VRB04KT 30KM 13/09 Q1015=
ETNW Wunstorf METAR ETNW 152220Z 29001KT 9999 12/09 Q1015 BLU+=
10338 Hannover/Langenhagen 152230Z AUTO 00000G01KT //// ////// 12/09 Q1015=
EDDV Hannover/Langenhagen METAR EDDV 152220Z VRB01KT CAVOK 12/09 Q1015=
10335 Bückeburg 152200Z 16004KT 30KM FEW130AC 15/09 Q1015=
ETHB Bückeburg METAR ETHB 152220Z 16001KT 9999 FEW130 14/09 Q1015 BLU+FCST CANCEL=
10359 Gardelegen 152230Z AUTO 30002G02KT 11KM ////// 06/05 Q1016=
10325 Bad Salzuflen 152230Z AUTO 36001G02KT 29KM SCT280 14/10 Q1015=
10348 Braunschweig 152230Z AUTO 17005G10KT 27KM ////// 16/07 Q1015=
10365 Genthin 152230Z AUTO 11001G02KT //// OVC140 13/06 Q1016=
10356 Ummendorf/RADAR 152230Z AUTO 36001G02KT 19KM ////// 12/05 Q1016=
10442 Alfeld 152230Z AUTO 15007G08KT 15KM ////// 10/08 Q1016=
10379 Potsdam 152230Z 15008G11KT 30KM FEW130AC SCT300CI 13/05 Q1016=
10433 Lügde-Paenbruch 152230Z AUTO 00000G01KT 28KM ////// 13/08 Q1016=
10430 Bad Lippspringe 152230Z AUTO 00000G02KT 22KM FEW100 10/08 Q1016=
10361 Magdeburg 152230Z AUTO 04001G02KT 19KM ////// 10/07 Q1016=
EDLP Paderborn/Lippstadt METAR EDLP 152220Z 18003KT 120V250 CAVOK 13/08 Q1016 RMK P=
10368 Wiesenburg 152230Z AUTO 14004G06KT 23KM OVC130 14/05 Q1016=
10454 Wernigerode 152230Z AUTO 17004G05KT 19KM ////// 09/07 Q1016=
10453 Brocken 152230Z 34013G14KT 60KM 14/05 Q1018=
10452 Braunlage 152230Z AUTO 31003G04KT 50KM ////// 15/05 Q1017=
10435 Warburg 152230Z AUTO 30003G06KT 19KM ////// 10/07 Q1016=
10474 Wittenberg 152230Z AUTO 09005G07KT 31KM ////// 15/04 Q1016=
EDVK Kassel/Calden METAR EDVK 152220Z 12002KT CAVOK 11/07 Q1016 RMK ATIS B=
10444 Göttingen 152230Z AUTO 08004G04KT 16KM ////// 08/07 Q1016=
10458 Harzgerode 152230Z AUTO 25006G08KT 12KM ////// 08/05 Q1016=
10427 Kahler Asten 152230Z AUTO 35008G10KT 70KM ////// 16/04 Q1018=
10441 Schauenburg-Elgershausen 152230Z AUTO 32001G02KT 42KM ////// 13/08 Q1017=
ETSH Holzdorf METAR ETSH 152220Z 10003KT 9999 FEW120 SCT200 10/03 Q1016 BLU+=
10476 Holzdorf 152200Z 09004KT 25KM FEW120AS SCT200CI 10/03 Q1016=
10449 Leinefelde 152230Z AUTO 00000G02KT 44KM ////// 11/07 Q1016=
ETHF Fritzlar METAR ETHF 152220Z VRB02KT 9999 10/08 Q1016 BLU+FCST CANCEL=
10439 Fritzlar 152200Z 00000KT 25KM 10/07 Q1016=
10460 Artern 152230Z AUTO 29002G03KT 33KM BKN170 12/08 Q1016=
EDDP Leipzig/Schkeuditz METAR EDDP 152220Z 16007KT CAVOK 14/06 Q1016 NOSIG=
10469 Leipzig/Schkeuditz 152230Z AUTO 17009G11KT //// ////// ///// Q1016=
10471 Leipzig-Holzhausen 152230Z AUTO 15002G03KT 24KM OVC130 13/07 Q1016=
10540 Eisenach 152230Z AUTO 29004G05KT 6000 HZ ////// 11/08 Q1016=
10480 Oschatz 152230Z AUTO 11003G04KT 19KM ////// 11/05 Q1017=
10537 Neu-Ulrichstein 152230Z AUTO 31004G05KT 18KM ////// 14/10 Q1016=
10542 Bad Hersfeld 152230Z AUTO 22002G03KT 11KM ////// 09/08 Q1017=
10554 Erfurt/Bindersleben 152230Z AUTO 21008G09KT //// ////// 09/05 Q1016=
EDDE Erfurt/Bindersleben METAR EDDE 152220Z 21010KT CAVOK 10/06 Q1016=
10565 Osterfeld 152230Z AUTO 18004G06KT 11KM ////// 14/06 Q1016=
10532 Giessen 152230Z AUTO 27001G02KT 22KM ////// 10/09 Q1016=
EDAC Leipzig-Altenburg METAR EDAC 152220Z AUTO VRB02KT 9999 // OVC120/// 10/07 Q1016=
10534 Hoherodskopf/Vogelsberg 152230Z AUTO 36004G06KT 57KM ////// 17/06 Q1018=
10567 Gera/Leumnitz 152230Z AUTO 21004G05KT 22KM FEW130 13/05 Q1017=
10552 Schmücke 152230Z AUTO 23004G05KT 48KM ////// 11/05 Q1018=
10548 Meiningen 152230Z AUTO 02001G01KT 28KM ////// 12/06 Q1017=
10544 Wasserkuppe 152230Z AUTO 30005G05KT 42KM ////// 12/06 Q1018=
10577 Chemnitz 152230Z AUTO 16004G09KT 25KM BKN130 16/05 Q1017=
10557 Neuhaus am Rennweg/RADAR 152230Z AUTO 17006G08KT 46KM ////// 11/05 Q1018=
10564 Schleiz 152230Z AUTO 18005G07KT 22KM ////// 13/05 Q1017=
10641 Offenbach-Wetterpark 152230Z AUTO 13001G01KT 16KM FEW097 10/09 Q1016=
10579 Marienberg 152230Z AUTO 26003G06KT 42KM BKN140 BKN170 12/04 Q1018=
10658 Bad Kissingen 152230Z AUTO 01004G05KT 30KM ////// 10/07 Q1017=
10569 Plauen 152230Z AUTO 26005G07KT 20KM OVC150 12/05 Q1017=
10671 Coburg/Lautertal-Oberlauter 152230Z AUTO 03007G08KT 18KM ////// 10/05 Q1017=
10646 Neuhütten im Spessart 152230Z AUTO 26001G02KT 9000 ////// 08/08 Q1017=
10574 Carlsfeld 152230Z AUTO 18005G11KT 26KM OVC120 OVC150 11/04 Q1018=
10685 Hof 152230Z AUTO 16003G04KT 19KM ////// 09/05 Q1017=
10578 Fichtelberg 152230Z AUTO 12009G10KT 44KM ////// 09/04 Q1019=
10648 Michelstadt-Vielbrunn/Odenwald 152230Z AUTO 14003G04KT 35KM ////// 15/08 Q1017=
LKKV KarlsbadKarlovy Vary METAR LKKV 152200Z VRB01KT CAVOK 08/03 Q1018=
10655 Würzburg 152230Z AUTO 36004G05KT 17KM ////// 11/08 Q1017=
10686 Wunsiedel-Schönbrunn 152230Z AUTO 36001G02KT 21KM ////// 09/04 Q1018=
10675 Bamberg 152230Z AUTO 10002G02KT 18KM ////// 05/05 Q1016=
10733 Waibstadt 152230Z AUTO 01002G03KT 21KM ////// 13/08 Q1016=
ETIC Grafenwöhr METAR ETIC 152156Z AUTO 00000KT 9999 CLR 06/05 A3003 RMK AO2 SLP171 T00570051 =
ETIK Illesheim METAR ETIK 152156Z AUTO 00000KT 9999 CLR 07/04 A3003 RMK AO2 SLP170 T00720036 =
ETHN Niederstetten METAR ETHN 152220Z 12004KT 9999 12/06 Q1016 BLU+=
10743 Niederstetten 152200Z 09006KT 40KM 10/05 Q1016=
10688 Weiden 152230Z AUTO 32001G03KT 22KM ////// 10/06 Q1017=
10763 Nürnberg 152230Z AUTO 36002G02KT //// ////// 09/06 Q1016=
EDDN Nürnberg METAR EDDN 152220Z VRB02KT CAVOK 09/06 Q1016=
10742 Öhringen 152230Z AUTO 06002G03KT 37KM ////// 12/07 Q1016=
LKLN Plzen-Line METAR LKLN 152200Z AUTO VRB01KT 9999 BKN140 10/05 Q1018=
ETEB Ansbach/Katterbach METAR ETEB 152156Z AUTO 00000KT 9999 CLR 11/05 A3003 RMK AO2 SLP175 T01120051 =
10771 Kümmersbruck 152200Z 25002KT 20KM FEW130AC 08/06 Q1017=
10756 Feuchtwangen-Heilbronn 152230Z AUTO 00000G01KT 20KM ////// 08/05 Q1017=
10765 Roth 152230Z AUTO 20002G03KT 15KM ////// 08/05 Q1017=
10782 Waldmuenchen 152230Z AUTO 26001G02KT 12KM ////// 08/06 Q1017=
10761 Weißenburg-Emetzheim 152230Z AUTO 21005G07KT 20KM ////// 09/07 Q1017=
10747 Kaisersbach-Cronhuette 152230Z AUTO 00000G01KT 29KM ////// 07/04 Q1016=
ETIH Hohenfels METAR ETIH 152156Z AUTO 00000KT 9999 CLR 07/07 A3004 RMK AO2 SLP172 T00680067 =
10739 Stuttgart 152230Z AUTO 16002G03KT 35KM ////// 13/08 Q1016=
10776 Regensburg 152230Z AUTO 01006G07KT 16KM ////// 09/07 Q1016=
EDDS Stuttgart/Echterdingen METAR EDDS 152220Z 29004KT CAVOK 11/07 Q1016=
10738 Stuttgart/Echterdingen 152230Z AUTO 27004G05KT //// ////// 11/06 Q1016=
10777 Gelbelsee 152230Z AUTO 29002G03KT 41KM ////// 11/07 Q1017=
10791 Grosser Arber 152230Z AUTO 19010G12KT 58KM ////// 11/03 Q1019=
10836 Stötten 152230Z AUTO 12006G09KT 39KM ////// 15/06 Q1017=
10850 Harburg 152230Z AUTO 10003G04KT 33KM BKN190 14/07 Q1017=
10796 Zwiesel 152230Z AUTO 15002G03KT 13KM ////// 08/07 Q1018=
ETSN Neuburg/Donau METAR ETSN 152220Z 36002KT 9999 08/07 Q1016 BLU+=
10853 Neuburg/Donau 152200Z 34002KT 40KM 08/06 Q1016=
10860 Ingolstadt-Manching 152200Z AUTO 20002KT 7000 ////// 07/06 Q1016=
ETSI Ingolstadt-Manching METAR ETSI 152220Z AUTO 30001KT 6000 // ////// 07/06 Q1016 ///=
10788 Straubing 152230Z AUTO 00000G02KT 24KM ////// 07/05 Q1016=
10840 Ulm-Mähringen 152230Z AUTO 28003G03KT 29KM ////// 07/05 Q1017=
10872 Gottfrieding 152230Z AUTO 00000G02KT 9000 ////// 07/05 Q1016=
10852 Augsburg 152230Z AUTO 18002G03KT 10KM ////// 06/05 Q1016=
10863 Weihenstephan 152230Z AUTO 26002G02KT 13KM ////// 08/07 Q1016=
10837 Laupheim 152200Z 00000KT 18KM 09/06 Q1017=
ETHL Laupheim METAR ETHL 152220Z 09001KT 9999 08/06 Q1017 BLU+=
10895 Fürstenzell 152230Z AUTO 24002G03KT 10KM ////// 13/07 Q1017=
ETSL Lechfeld METAR ETSL 152220Z 18003KT 9999 FEW090 07/06 Q1017 BLU+=
10856 Lechfeld 152200Z 17004KT 40KM FEW090AC 06/05 Q1017=
11008 Rohrbach 152200Z AUTO 36002KT //// ////// 11/06 Q1018=
11055 Schärding 152200Z AUTO 33002KT //// ////// 10/08 Q1016=
10865 München/Stadt 152230Z AUTO 29003G04KT 25KM ////// 10/09 Q1016=
10875 Mühldorf 152230Z AUTO 29002G02KT 10KM ////// 05/04 Q1017=
11051 Ranshofen 152200Z AUTO 10004KT //// ////// 11/07 Q1016=
10945 Leutkirch-Herlazhofen 152230Z AUTO 00000G01KT 18KM ////// 06/05 Q1017=
11053 Ried i.Innkreis 152200Z AUTO 23002KT //// ////// 08/06 Q1017=
EDNY Friedrichshafen METAR EDNY 152220Z AUTO 00000KT 9999 // NCD 09/06 Q1016 RMK G=
11060 Linz/Stadt 152200Z AUTO 32002KT //// ////// 14/07 Q1017=
10954 Altenstadt 152200Z AUTO 24004KT //// ////// 10/06 Q1017=
ETHA Altenstadt METAR ETHA 152220Z AUTO 24004KT //// // ////// 09/06 Q1017 ///=
11010 Linz/Hörsching 152200Z AUTO 07008KT 30KM ////// 13/06 Q1017=
LOWL Linz/Hörsching METAR LOWL 152220Z AUTO 08006KT 9999 NSC 12/06 Q1017=
10962 Hohenpeissenberg 152230Z AUTO 22009G11KT 63KM ////// 14/01 Q1018=
10946 Kempten-Durach 152230Z AUTO 12005G07KT 19KM ////// 08/05 Q1017=
11059 Wels/Schleissheim 152200Z AUTO 00000KT //// ////// 09/06 Q1017=
11001 Wolfsegg 152200Z AUTO 08004KT //// ////// 13/05 Q1017=
11152 Mattsee 152200Z AUTO 23002KT //// ////// 14/06 Q1017=
LSZR Altenrhein METAR LSZR 152220Z AUTO VRB03KT CAVOK 12/05 Q1016=
06690 Altenrhein 152200Z AUTO 04702KT //// ////// 15/06 Q1016=
11101 Bregenz 152200Z AUTO 14008KT //// ////// 17/04 Q1016=
10982 Chieming 152230Z AUTO 16003G06KT 16KM ////// 13/05 Q1017=
11012 Kremsmünster 152200Z AUTO 09002KT //// ////// 11/06 Q1017=
11301 Alberschwende 152200Z AUTO 21002KT //// ////// 10/04 Q1017=
11302 Dornbirn 152200Z AUTO 00000KT //// ////// 11/07 Q1015=
11314 Reutte METAR 11314 152230Z AUTO 19002KT 9999 NCD 08/03=
11153 Mondsee 152200Z AUTO 12016KT //// ////// 18/06 Q1017=
11150 Salzburg 152200Z AUTO 15014KT 50KM ////// 16/06 Q1016=
LOWS Salzburg METAR LOWS 152220Z AUTO 15013KT 110V180 9999 NSC 16/05 Q1016=
10948 Oberstdorf 152230Z AUTO 17002G02KT 24KM ////// 04/02 Q1018=
11350 Salzburg 152200Z AUTO 18004KT //// ////// 16/06 Q1016=
11105 Feldkirch METAR 11105 152230Z AUTO 14002KT 9999 NCD 14/04=
10963 Garmisch-Partenkirchen 152230Z AUTO 24002G03KT 33KM ////// 06/04 Q1018=
11155 Feuerkogel 152200Z AUTO 21019KT //// ////// 09/01 Q1020=
10961 Zugspitze 152230Z AUTO 17016G23KT 53KM ////// M01/M05 Q1023=
11130 Kufstein 152200Z AUTO 26006KT //// ////// 11/05 Q1017=
11357 St.Wolfgang 152200Z AUTO 04002KT //// ////// 12/08 Q1018=
11337 Loferer Alm 152200Z AUTO 23012KT //// ////// 10/M01 Q1020=
11308 Warth 152200Z AUTO 00000KT //// ////// 07/M00 Q1020=
11140 Lofer METAR 11140 152230Z AUTO 24006KT 9999 NCD 11/05=
11119 Seefeld 152200Z AUTO 23002KT //// ////// 03/01 Q1020=
11355 Windischgarsten 152200Z AUTO 14014KT //// ////// 17/07 Q1018=
11304 Brand 152200Z AUTO 17006KT //// ////// 16/00 Q1018=
11325 Jenbach METAR 11325 152230Z AUTO 01001KT 9999 NCD 08/05=
11356 Bad Aussee METAR 11356 152230Z AUTO 06006KT 9999 ////// 12/07=
11110 Galzig 152200Z AUTO 24010KT //// ////// 06/M02 Q1022=
11120 Innsbruck 152200Z AUTO 25008KT 35KM ////// 12/05 Q1018=
LOWI Innsbruck METAR LOWI 152220Z AUTO 24007KT 170V270 9999 NSC 10/05 Q1019=
11121 Innsbruck-Flughafen Automat 152200Z AUTO 27006KT //// ////// 11/05 Q1019=
11112 Landeck 152200Z AUTO 23002KT //// ////// 09/03 Q1020=
11358 Bad Mitterndorf 152200Z AUTO 04002KT //// ////// 09/07 Q1020=
11137 Maria Alm 152200Z AUTO 11004KT //// ////// 07/06 Q1020=
11366 Saalbach 152200Z AUTO 28002KT //// ////// 05/03 Q1020=
11126 Patscherkofel 152200Z AUTO 16023KT //// ////// 03/00 Q1022=
11157 Aigen/Ennstal 152200Z AUTO 25004KT //// ////// 09/07 Q1020=
11141 Bischofshofen 152200Z AUTO 15004KT //// ////// 09/06 Q1020=
11340 Schmittenhöhe 152200Z AUTO 20006KT //// ////// 06/M02 Q1022=
11312 Galtuer 152200Z AUTO 21004KT //// ////// 05/02 Q1021=
11144 Zell am See METAR 11144 152230Z AUTO 21002KT 9999 NCD 08/06=
11351 Ramsau 152200Z AUTO 31002KT //// ////// 07/03 Q1021=
11310 Ischgl/Idalpe 152200Z AUTO 20004KT //// ////// 04/M02 Q1023=
11359 Groebming 152200Z AUTO 00000KT //// ////// 08/07 Q1020=
11136 Krimml 152200Z AUTO 00000KT //// ////// 07/04 Q1020=
11330 Mayrhofen METAR 11330 152230Z AUTO 22002KT 9999 NCD 13/04=
11345 St.Veit/Pongau 152200Z AUTO 04002KT //// ////// 09/07 Q1020=
06780 Weissfluhjoch 152200Z AUTO 18113KT //// ////// 01/M02 Q1023=
06784 Davos 152200Z AUTO 21202KT //// ////// 05/M00 Q1022=
11346 Rauris 152200Z AUTO 00000KT //// ////// 06/03 Q1020=
11316 Pitztaler Gletscher 152200Z AUTO 29002KT //// ////// M01/M05 Q1024=
11318 Brunnenkogel 152200Z AUTO 24006KT //// ////// M06/M06 Q1025=
06799 Naluns / Schlivera 152200Z AUTO 25310KT //// ////// 03/M01 Q1023=
11129 Brenner neu 152200Z AUTO 15004KT //// ////// 10/05 Q1022=
11149 Obertauern 152200Z AUTO 12008KT //// ////// 04/03 Q1023=
06798 Scuols 152200Z AUTO 01000KT //// ////// 10/02 Q1021=
11138 Rudolfshütte 152200Z AUTO 18021KT //// ////// 03/M01 Q1023=
11127 Obergurgl 152200Z AUTO 15002KT //// ////// 04/M01 Q1022=
LIVE Reschenpass METAR LIVE 152155Z 16004KT 9999 BKN030 09/07 Q1021=
11252 Virgen 152200Z AUTO 00000KT //// ////// 08/08 Q1023=
11348 Mariapfarr 152200Z AUTO 36004KT //// ////// 07/06 Q1022=
11343 Sonnblick 152200Z AUTO 25025KT //// ////// M04/M05 Q1024=
11148 St.Michael/Lungau METAR 11148 152230Z AUTO 29003KT 9999 OVC026 08/05=
06778 Buffalora 152200Z AUTO 13901KT //// ////// 04/02 Q1023=
11349 Katschberg 152200Z AUTO 19006KT //// ////// 06/05 Q1022=
11280 Murau 152200Z AUTO 29002KT //// ////// 08/05 Q1022=
06792 Samedan 152200Z AUTO 22707KT //// ////// 08/04 Q1022=
LSZS Samedan METAR LSZS 152220Z AUTO 22007KT 9999 SCT023 SCT048 08/04 Q1022=
06796 Sta. Maria Val Muestair 152200Z AUTO 20503KT //// ////// 07/04 Q1022=
11260 Mallnitz 152200Z AUTO 00000KT //// ////// 06/// Q1023=
11220 Neumarkt METAR 11220 152230Z AUTO 00000KT 3100 BR FEW002 BKN054 08/07=
11204 Lienz METAR 11204 152230Z AUTO 24002KT 7000 OVC025 10/09=
11201 Sillian METAR 11201 152230Z AUTO 26002KT 6000 NCD 04/03=
06797 Passo del Bernina 152200Z AUTO 15309KT //// ////// 03/03 Q1024=
06794 Robbia 152200Z AUTO 00000KT //// ////// 10/08 Q1022=
11272 Spittal/Drautal METAR 11272 152230Z AUTO 33002KT 0100 FG VV002 08/08=
11270 Dellach/Drautal 152200Z AUTO 03002KT //// ////// 09/09 Q1022=
11225 Weitensfeld METAR 11225 152230Z AUTO 09001KT 1600 BR OVC001 09/09=
11263 Weissensee 152200Z AUTO 29002KT //// ////// 09/09 Q1022=
11255 Kötschach 152200Z AUTO 02002KT //// ////// 08/08 Q1022=
11275 Arriach 152200Z AUTO 07004KT //// ////// 09/08 Q1022=
11227 Feldkirchen 152200Z AUTO 00000KT //// ////// 10/09 Q1022=
11237 St.Veit/Glan METAR 11237 152230Z AUTO 35002KT 4100 BR FEW005 BKN089 10/07=
11265 Villacher Alpe 152200Z AUTO 23016KT //// ////// 03/03 Q1024=
11213 Villach 152200Z AUTO 16002KT //// UP ////// 11/10 Q1022=
11231 Klagenfurt 152200Z AUTO VRB04KT 5000 SCT002 SCT004 BKN090 10/09 Q1022=
LOWK Klagenfurt METAR LOWK 152220Z AUTO 31002KT 5000 BR SCT001 BKN090 10/09 Q1022=
11278 Pörtschach 152200Z AUTO 02002KT //// ////// 11/09 Q1022=
11331 Klagenfurt-Flughafen Automat 152200Z AUTO 33002KT //// ////// 10/09 Q1022=
LIVP Paganella METAR LIVP 152155Z 19006KT 0000 FG VV/// 03/03 Q1023=
11234 Eisenkappel 152200Z AUTO 00000KT //// ////// 10/09 Q1022=
LJLJ Ljubljana/Brnik METAR LJLJ 152230Z 07003KT 4000 BR FEW001 BKN050 10/10 Q1022 NOSIG=
LIPO Montichiari METAR LIPO 152150Z 06004KT CAVOK 16/11 Q1020=
LIPL Brescia/Ghedi METAR LIPL 152155Z 06004KT 8000 NSC 15/13 Q1020=
LIPS Treviso/Istrana METAR LIPS 152155Z 01003KT 9999 FEW090 15/13 Q1020=
LIPH Treviso/S.Angelo METAR LIPH 152220Z AUTO VRB02KT 9999 NCD 14/11 Q1020=
LIPQ Ronchi dei Legionari METAR LIPQ 152220Z AUTO 09003KT 050V130 9999 BKN066/// 16/13 Q1020=
LIPX Verona/Villafranca METAR LIPX 152220Z VRB02KT CAVOK 13/10 Q1020=
LIPZ Venedig METAR LIPZ 152220Z 01006KT 9999 BKN060 15/12 Q1020 NOSIG=
LIVT Trieste METAR LIVT 152155Z 06005KT 9999 FEW040 18/12 Q1019=
LJPZ Portoroz/Secovlje METAR LJPZ 152230Z AUTO 12004KT 9999 NSC 15/13 Q1019=
10870 München/FJS Intl 152230Z AUTO 00000G01KT 2800 ////// 06/05 Q1016=
EDDM München/FJS Intl METAR EDDM 152220Z 00000KT CAVOK 06/06 Q1016 NOSIG=

Das Posting wurde vom Benutzer editiert (16.10.2018 01:28).

Bewerten
- +